Terminal Aerodrome Forecast
Issued by NWS Shreveport, LA

Home | Current Version | Previous Version | Text Only | Print | Product List | Glossary On
Versions: 1 2 3 4 5 6 7 8 9 10 11 12 13 14 15 16 17 18
000
FTUS44 KSHV 020500 RRA
TAFSHV
TAF
KSHV 020557Z 0206/0306 15005KT P6SM SCT040 SCT090
     FM020700 17005KT 6SM BR BKN025
      TEMPO 0209/0213 3SM BR OVC012
     FM021500 19009KT P6SM OVC015
     FM021800 20013G17KT P6SM BKN035 OVC050
     FM022000 18010KT P6SM SCT020 BKN040
     FM030000 19011KT P6SM VCTS BKN050CB OVC250=

USA.gov is the U.S. government's official web portal to all federal, state and local government web resources and services.